createdAt,value
2023-04-11T00:00:06.677Z,62.00
2023-04-11T00:03:03.441Z,64.20
2023-04-11T00:05:35.633Z,60.50
2023-04-11T00:08:07.409Z,62.40
2023-04-11T00:10:39.395Z,59.50
2023-04-11T00:13:11.154Z,41.20
2023-04-11T00:15:43.116Z,57.00
2023-04-11T00:18:14.923Z,53.90
2023-04-11T00:20:46.745Z,59.00
2023-04-11T00:23:18.497Z,60.80
2023-04-11T00:25:50.904Z,62.20
2023-04-11T00:28:22.672Z,58.80
2023-04-11T00:30:54.438Z,59.90
2023-04-11T00:33:26.453Z,64.10
2023-04-11T00:38:29.229Z,68.30
2023-04-11T00:41:01.743Z,62.80
2023-04-11T00:43:33.776Z,62.80
2023-04-11T00:46:06.399Z,66.80
2023-04-11T00:48:38.364Z,63.90
2023-04-11T00:51:10.472Z,58.70
2023-04-11T00:53:43.309Z,45.50
2023-04-11T00:56:15.460Z,61.30
2023-04-11T00:58:48.898Z,64.70
2023-04-11T01:01:25.023Z,62.20
2023-04-11T01:04:00.867Z,67.30
2023-04-11T01:06:34.241Z,64.60
2023-04-11T01:09:06.257Z,62.90
2023-04-11T01:11:38.379Z,67.60
2023-04-11T01:14:10.275Z,65.90
2023-04-11T01:16:43.798Z,65.00
2023-04-11T01:19:19.254Z,64.80
2023-04-11T01:21:53.372Z,69.40
2023-04-11T01:24:25.229Z,69.80
2023-04-11T01:26:58.103Z,70.20
2023-04-11T01:29:30.198Z,63.80
2023-04-11T01:32:01.940Z,62.60
2023-04-11T01:34:36.941Z,73.10
2023-04-11T01:37:09.072Z,65.60
2023-04-11T01:39:41.029Z,70.10
2023-04-11T01:42:13.836Z,63.60
2023-04-11T01:44:46.169Z,65.40
2023-04-11T01:47:18.105Z,61.30
2023-04-11T01:49:51.066Z,67.70
2023-04-11T01:52:22.878Z,60.50
2023-04-11T01:54:54.671Z,62.40
2023-04-11T01:57:27.177Z,62.90
2023-04-11T01:59:59.036Z,65.20
2023-04-11T02:02:30.920Z,65.20
2023-04-11T02:05:03.538Z,69.40
2023-04-11T02:07:35.301Z,63.50
2023-04-11T02:10:09.797Z,66.30
2023-04-11T02:12:41.645Z,60.30
2023-04-11T02:15:13.857Z,61.90
2023-04-11T02:17:46.558Z,66.60
2023-04-11T02:20:18.329Z,44.10
2023-04-11T02:22:50.208Z,63.00
2023-04-11T02:25:22.007Z,58.60
2023-04-11T02:27:53.806Z,62.30
2023-04-11T02:30:27.634Z,64.90
2023-04-11T02:32:59.514Z,43.00
2023-04-11T02:35:31.339Z,68.20
2023-04-11T02:38:05.175Z,63.70
2023-04-11T02:40:37.003Z,60.60
2023-04-11T02:43:08.949Z,58.50
2023-04-11T02:45:41.181Z,64.30
2023-04-11T02:48:13.050Z,66.70
2023-04-11T02:50:48.310Z,65.40
2023-04-11T02:53:20.158Z,60.60
2023-04-11T02:55:53.420Z,62.30
2023-04-11T02:58:25.914Z,72.20
2023-04-11T03:00:58.776Z,66.10
2023-04-11T03:03:31.453Z,64.90
2023-04-11T03:06:03.434Z,76.40
2023-04-11T03:08:36.119Z,63.50
2023-04-11T03:13:39.378Z,64.00
2023-04-11T03:16:13.583Z,65.60
2023-04-11T03:18:45.932Z,70.50
2023-04-11T03:21:18.206Z,48.90
2023-04-11T03:23:50.333Z,56.90
2023-04-11T03:26:27.032Z,45.60
2023-04-11T03:29:00.225Z,65.80
2023-04-11T03:31:34.296Z,62.80
2023-04-11T03:34:07.428Z,65.00
2023-04-11T03:36:39.218Z,59.40
2023-04-11T03:39:12.070Z,60.10
2023-04-11T03:41:44.243Z,66.10
2023-04-11T03:44:16.526Z,64.30
2023-04-11T03:46:48.874Z,57.20
2023-04-11T03:49:21.160Z,59.80
2023-04-11T03:51:56.873Z,58.40
2023-04-11T03:54:29.106Z,63.80
2023-04-11T03:57:01.166Z,68.90
2023-04-11T04:02:08.578Z,64.70
2023-04-11T04:04:47.050Z,65.10
2023-04-11T04:07:29.328Z,64.10
2023-04-11T04:10:10.803Z,55.70
2023-04-11T04:12:43.160Z,61.90
2023-04-11T04:15:25.396Z,63.00
2023-04-11T04:17:58.596Z,61.20
2023-04-11T04:20:45.751Z,60.30
2023-04-11T04:23:18.023Z,64.50
2023-04-11T04:26:16.336Z,64.60
2023-04-11T04:28:51.062Z,62.20
2023-04-11T04:31:33.710Z,67.80
2023-04-11T04:34:10.319Z,61.10
2023-04-11T04:36:47.796Z,66.90
2023-04-11T04:39:22.236Z,69.60
2023-04-11T04:41:58.985Z,69.80
2023-04-11T04:44:35.088Z,66.40
2023-04-11T04:47:10.295Z,71.60
2023-04-11T04:49:42.110Z,61.70
2023-04-11T04:52:14.709Z,64.80
2023-04-11T04:57:17.052Z,69.20
2023-04-11T04:59:49.489Z,59.70
2023-04-11T05:02:21.855Z,64.70
2023-04-11T05:04:54.483Z,67.10
2023-04-11T05:07:26.604Z,64.90
2023-04-11T05:09:58.605Z,69.30
2023-04-11T05:12:30.554Z,61.70
2023-04-11T05:15:11.411Z,66.80
2023-04-11T05:17:43.644Z,67.20
2023-04-11T05:20:16.708Z,64.00
2023-04-11T05:22:50.931Z,63.90
2023-04-11T05:25:23.105Z,60.20
2023-04-11T05:27:55.993Z,68.60
2023-04-11T05:30:29.297Z,69.90
2023-04-11T05:33:01.351Z,65.10
2023-04-11T05:35:33.376Z,62.50
2023-04-11T05:38:05.354Z,65.60
2023-04-11T05:40:37.751Z,46.60
2023-04-11T05:43:13.487Z,52.60
2023-04-11T05:45:47.769Z,66.40
2023-04-11T05:48:21.351Z,63.80
2023-04-11T05:50:53.724Z,66.70
2023-04-11T05:53:25.692Z,62.50
2023-04-11T05:55:58.070Z,58.50
2023-04-11T05:58:31.638Z,59.00
2023-04-11T06:01:03.383Z,47.10
2023-04-11T06:03:35.443Z,55.30
2023-04-11T06:06:08.768Z,61.80
2023-04-11T06:08:40.911Z,59.50
2023-04-11T06:11:13.003Z,56.40
2023-04-11T06:13:45.021Z,67.70
2023-04-11T06:16:16.965Z,47.10
2023-04-11T06:18:49.197Z,53.00
2023-04-11T06:21:21.403Z,55.90
2023-04-11T06:23:53.179Z,59.90
2023-04-11T06:26:24.958Z,62.20
2023-04-11T06:28:56.849Z,57.60
2023-04-11T06:31:28.815Z,42.20
2023-04-11T06:34:01.269Z,57.40
2023-04-11T06:36:33.483Z,54.80
2023-04-11T06:39:05.792Z,54.80
2023-04-11T06:41:37.534Z,56.80
2023-04-11T06:44:09.657Z,55.50
2023-04-11T06:46:41.536Z,45.30
2023-04-11T06:49:17.779Z,54.00
2023-04-11T06:51:50.230Z,58.00
2023-04-11T06:56:53.477Z,53.70
2023-04-11T06:59:25.835Z,54.70
2023-04-11T07:01:58.727Z,55.80
2023-04-11T07:04:30.956Z,62.50
2023-04-11T07:07:04.507Z,55.90
2023-04-11T07:09:37.291Z,54.30
2023-04-11T07:12:09.491Z,53.10
2023-04-11T07:14:41.527Z,55.00
2023-04-11T07:17:13.513Z,55.50
2023-04-11T07:19:46.693Z,56.30
2023-04-11T07:22:18.551Z,52.60
2023-04-11T07:24:55.158Z,51.20
2023-04-11T07:27:27.038Z,52.40
2023-04-11T07:29:59.117Z,37.40
2023-04-11T07:32:31.018Z,51.60
2023-04-11T07:35:02.956Z,57.20
2023-04-11T07:37:35.617Z,49.10
2023-04-11T07:40:11.830Z,46.90
2023-04-11T07:42:43.714Z,50.30
2023-04-11T07:45:15.579Z,50.20
2023-04-11T07:47:47.540Z,42.40
2023-04-11T07:50:19.818Z,50.70
2023-04-11T07:52:51.856Z,48.20
2023-04-11T07:55:23.603Z,54.70
2023-04-11T07:57:55.686Z,53.20
2023-04-11T08:00:28.709Z,53.60
2023-04-11T08:03:03.175Z,50.70
2023-04-11T08:05:36.953Z,54.40
2023-04-11T08:08:09.092Z,59.60
2023-04-11T08:10:41.068Z,53.00
2023-04-11T08:13:12.959Z,52.70
2023-04-11T08:15:44.792Z,53.10
2023-04-11T08:18:21.435Z,50.30
2023-04-11T08:20:53.704Z,52.80
2023-04-11T08:23:25.623Z,50.00
2023-04-11T08:25:57.962Z,45.20
2023-04-11T08:28:30.081Z,50.70
2023-04-11T08:31:04.091Z,48.70
2023-04-11T08:33:36.215Z,46.30
2023-04-11T08:36:10.370Z,43.00
2023-04-11T08:38:43.189Z,53.90
2023-04-11T08:41:15.470Z,46.90
2023-04-11T08:43:48.048Z,41.30
2023-04-11T08:46:20.045Z,34.80
2023-04-11T08:48:52.253Z,36.10
2023-04-11T08:51:26.960Z,36.30
2023-04-11T08:54:05.392Z,33.50
2023-04-11T08:56:38.277Z,36.40
2023-04-11T08:59:10.207Z,34.60
2023-04-11T09:01:42.294Z,30.40
2023-04-11T09:07:00.996Z,31.80
2023-04-11T09:09:34.006Z,34.90
2023-04-11T09:14:36.594Z,37.80
2023-04-11T09:17:13.441Z,32.50
2023-04-11T09:19:48.329Z,32.50
2023-04-11T09:22:21.668Z,36.10
2023-04-11T09:25:04.542Z,41.00
2023-04-11T09:30:19.236Z,34.50
2023-04-11T09:32:53.279Z,36.30
2023-04-11T09:35:28.507Z,37.60
2023-04-11T09:38:03.438Z,38.30
2023-04-11T09:40:44.256Z,28.70
2023-04-11T09:43:16.054Z,33.10
2023-04-11T09:45:54.524Z,35.50
2023-04-11T09:48:39.511Z,33.80
2023-04-11T09:51:28.152Z,38.90
2023-04-11T09:54:08.382Z,35.00
2023-04-11T09:56:40.464Z,36.00
2023-04-11T09:59:13.196Z,37.50
2023-04-11T10:04:16.415Z,34.70
2023-04-11T10:09:23.670Z,32.50
2023-04-11T10:11:55.974Z,30.60
2023-04-11T10:14:47.037Z,37.00
2023-04-11T10:17:22.889Z,39.30
2023-04-11T10:19:58.397Z,39.10
2023-04-11T10:23:02.654Z,32.80
2023-04-11T10:25:48.990Z,35.30
2023-04-11T10:28:35.118Z,41.60
2023-04-11T10:31:10.038Z,28.00
2023-04-11T10:34:02.976Z,33.80
2023-04-11T10:37:04.962Z,30.90
2023-04-11T10:40:09.918Z,30.00
2023-04-11T10:42:43.175Z,33.30
2023-04-11T10:45:19.995Z,28.90
2023-04-11T10:48:11.792Z,27.40
2023-04-11T10:50:47.001Z,29.50
2023-04-11T10:53:38.470Z,27.80
2023-04-11T10:56:10.703Z,29.10
2023-04-11T10:58:42.712Z,30.60
2023-04-11T11:01:32.330Z,29.10
2023-04-11T11:04:10.997Z,22.80
2023-04-11T11:06:51.044Z,28.20
2023-04-11T11:09:29.091Z,34.70
2023-04-11T11:12:12.461Z,28.80
2023-04-11T11:14:46.031Z,26.00
2023-04-11T11:17:19.651Z,28.90
2023-04-11T11:19:52.237Z,27.40
2023-04-11T11:22:26.366Z,26.50
2023-04-11T11:25:10.368Z,27.20
2023-04-11T11:27:42.333Z,29.00
2023-04-11T11:30:16.306Z,29.00
2023-04-11T11:32:48.287Z,22.00
2023-04-11T11:35:20.724Z,23.60
2023-04-11T11:37:54.109Z,19.60
2023-04-11T11:40:26.124Z,16.00
2023-04-11T11:42:58.117Z,14.80
2023-04-11T11:45:30.126Z,17.40
2023-04-11T11:48:02.235Z,20.20
2023-04-11T11:53:16.755Z,13.80
2023-04-11T11:55:48.735Z,14.20
2023-04-11T11:58:21.360Z,15.20
2023-04-11T12:00:53.974Z,16.20
2023-04-11T12:03:29.959Z,19.80
2023-04-11T12:06:02.274Z,18.00
2023-04-11T12:08:41.563Z,13.90
2023-04-11T12:11:16.101Z,18.50
2023-04-11T12:13:52.835Z,16.50
2023-04-11T12:16:25.608Z,17.20
2023-04-11T12:19:01.001Z,19.60
2023-04-11T12:21:36.710Z,17.00
2023-04-11T12:24:10.580Z,15.80
2023-04-11T12:26:52.974Z,14.80
2023-04-11T12:29:36.185Z,19.80
2023-04-11T12:32:08.840Z,19.70
2023-04-11T12:37:11.015Z,21.00
2023-04-11T12:39:43.013Z,22.00
2023-04-11T12:42:16.679Z,23.70
2023-04-11T12:44:50.834Z,21.90
2023-04-11T12:47:22.777Z,22.40
2023-04-11T12:49:54.716Z,25.30
2023-04-11T12:52:26.924Z,22.40
2023-04-11T12:54:59.071Z,20.60
2023-04-11T12:57:31.211Z,20.50
2023-04-11T13:00:07.019Z,22.40
2023-04-11T13:02:44.047Z,19.90
2023-04-11T13:05:17.645Z,20.40
2023-04-11T13:07:49.719Z,23.50
2023-04-11T13:10:21.691Z,23.00
2023-04-11T13:12:58.585Z,21.20
2023-04-11T13:15:33.055Z,24.30
2023-04-11T13:18:05.494Z,21.10
2023-04-11T13:20:37.471Z,27.10
2023-04-11T13:23:10.505Z,17.60
2023-04-11T13:25:43.329Z,16.50
2023-04-11T13:28:15.556Z,18.70
2023-04-11T13:30:47.446Z,16.60
2023-04-11T13:33:19.249Z,17.30
2023-04-11T13:35:51.096Z,21.20
2023-04-11T13:38:22.921Z,18.00
2023-04-11T13:40:55.492Z,21.20
2023-04-11T13:43:30.115Z,14.60
2023-04-11T13:46:04.256Z,14.90
2023-04-11T13:48:37.681Z,12.80
2023-04-11T13:51:10.345Z,11.10
2023-04-11T13:53:42.326Z,7.40
2023-04-11T13:56:14.400Z,10.80
2023-04-11T13:58:46.466Z,7.00
2023-04-11T14:01:20.170Z,6.00
2023-04-11T14:03:52.785Z,5.70
2023-04-11T14:06:24.685Z,4.70
2023-04-11T14:08:56.702Z,12.20
2023-04-11T14:11:28.539Z,8.40
2023-04-11T14:14:00.379Z,10.50
2023-04-11T14:16:32.384Z,5.80
2023-04-11T14:19:04.642Z,4.30
2023-04-11T14:21:36.880Z,9.00
2023-04-11T14:24:09.538Z,5.90
2023-04-11T14:26:41.795Z,7.00
2023-04-11T14:29:13.773Z,6.20
2023-04-11T14:31:46.219Z,5.00
2023-04-11T14:34:18.735Z,6.00
2023-04-11T14:36:51.127Z,4.20
2023-04-11T14:39:23.870Z,7.00
2023-04-11T14:44:28.034Z,16.20
2023-04-11T14:47:00.687Z,8.50
2023-04-11T14:49:33.081Z,8.90
2023-04-11T14:52:05.446Z,6.90
2023-04-11T14:54:37.485Z,9.10
2023-04-11T14:57:09.634Z,12.10
2023-04-11T14:59:42.823Z,10.20
2023-04-11T15:02:15.441Z,13.30
2023-04-11T15:07:17.861Z,8.80
2023-04-11T15:09:49.949Z,9.00
2023-04-11T15:12:21.791Z,7.30
2023-04-11T15:14:53.636Z,8.60
2023-04-11T15:17:25.569Z,9.10
2023-04-11T15:19:57.798Z,12.00
2023-04-11T15:22:29.653Z,9.00
2023-04-11T15:25:01.510Z,7.60
2023-04-11T15:27:34.200Z,8.30
2023-04-11T15:30:07.628Z,10.70
2023-04-11T15:32:44.628Z,9.80
2023-04-11T15:35:16.739Z,6.90
2023-04-11T15:37:51.627Z,7.80
2023-04-11T15:40:23.624Z,8.30
2023-04-11T15:42:55.580Z,9.00
2023-04-11T15:45:30.738Z,6.10
2023-04-11T15:48:03.161Z,10.00
2023-04-11T15:50:35.577Z,11.20
2023-04-11T15:53:07.530Z,13.10
2023-04-11T15:55:41.918Z,10.10
2023-04-11T15:58:14.338Z,10.70
2023-04-11T16:00:46.986Z,10.00
2023-04-11T16:05:52.973Z,12.60
2023-04-11T16:08:26.117Z,10.70
2023-04-11T16:10:57.906Z,8.40
2023-04-11T16:13:29.860Z,10.80
2023-04-11T16:16:02.067Z,11.00
2023-04-11T16:18:34.136Z,9.80
2023-04-11T16:21:12.631Z,10.30
2023-04-11T16:23:44.712Z,9.20
2023-04-11T16:26:17.056Z,10.50
2023-04-11T16:28:49.651Z,10.20
2023-04-11T16:31:25.085Z,10.60
2023-04-11T16:33:57.417Z,11.40
2023-04-11T16:36:29.842Z,9.50
2023-04-11T16:39:01.662Z,13.00
2023-04-11T16:41:36.302Z,14.40
2023-04-11T16:44:11.468Z,12.80
2023-04-11T16:46:44.292Z,12.50
2023-04-11T16:49:16.486Z,17.60
2023-04-11T16:51:48.711Z,17.00
2023-04-11T16:54:21.015Z,15.20
2023-04-11T16:56:53.090Z,13.60
2023-04-11T16:59:25.370Z,17.90
2023-04-11T17:01:57.606Z,24.40
2023-04-11T17:04:29.908Z,18.50
2023-04-11T17:07:02.231Z,25.70
2023-04-11T17:09:34.439Z,17.60
2023-04-11T17:12:07.056Z,15.20
2023-04-11T17:14:38.733Z,20.10
2023-04-11T17:17:10.824Z,13.90
2023-04-11T17:19:43.159Z,15.10
2023-04-11T17:22:15.481Z,17.60
2023-04-11T17:24:47.200Z,19.00
2023-04-11T17:27:19.038Z,14.00
2023-04-11T17:29:50.784Z,15.30
2023-04-11T17:32:23.301Z,19.50
2023-04-11T17:34:55.859Z,14.50
2023-04-11T17:37:28.470Z,15.60
2023-04-11T17:40:00.393Z,13.20
2023-04-11T17:42:32.918Z,14.10
2023-04-11T17:45:17.915Z,17.10
2023-04-11T17:47:51.186Z,13.40
2023-04-11T17:50:23.861Z,9.80
2023-04-11T17:52:56.446Z,13.20
2023-04-11T17:57:59.371Z,9.60
2023-04-11T18:00:31.925Z,7.40
2023-04-11T18:03:05.850Z,9.60
2023-04-11T18:05:38.944Z,7.90
2023-04-11T18:08:13.049Z,8.20
2023-04-11T18:10:45.918Z,10.70
2023-04-11T18:13:20.914Z,6.30
2023-04-11T18:15:52.904Z,9.00
2023-04-11T18:18:25.033Z,10.80
2023-04-11T18:21:04.787Z,9.20
2023-04-11T18:23:39.340Z,9.10
2023-04-11T18:26:11.580Z,8.60
2023-04-11T18:28:43.682Z,15.90
2023-04-11T18:31:16.393Z,14.40
2023-04-11T18:33:48.705Z,9.60
2023-04-11T18:36:21.554Z,11.20
2023-04-11T18:38:53.915Z,11.40
2023-04-11T18:41:26.161Z,15.70
2023-04-11T18:43:58.971Z,11.20
2023-04-11T18:46:33.053Z,13.50
2023-04-11T18:49:07.432Z,13.30
2023-04-11T18:51:40.002Z,10.60
2023-04-11T18:54:11.839Z,9.40
2023-04-11T18:56:46.389Z,9.20
2023-04-11T18:59:23.926Z,8.30
2023-04-11T19:01:57.205Z,10.20
2023-04-11T19:04:29.395Z,8.30
2023-04-11T19:07:03.147Z,10.50
2023-04-11T19:09:35.436Z,9.00
2023-04-11T19:12:07.931Z,12.10
2023-04-11T19:14:39.762Z,9.60
2023-04-11T19:17:12.305Z,7.80
2023-04-11T19:19:44.256Z,10.20
2023-04-11T19:22:16.544Z,9.20
2023-04-11T19:24:48.945Z,10.40
2023-04-11T19:27:22.526Z,9.80
2023-04-11T19:29:54.773Z,10.00
2023-04-11T19:32:27.276Z,10.40
2023-04-11T19:34:59.684Z,12.80
2023-04-11T19:37:33.134Z,9.40
2023-04-11T19:40:07.390Z,11.50
2023-04-11T19:42:40.288Z,9.90
2023-04-11T19:45:13.236Z,10.20
2023-04-11T19:47:46.157Z,11.80
2023-04-11T19:50:18.452Z,13.10
2023-04-11T19:52:50.858Z,19.40
2023-04-11T19:55:23.596Z,10.70
2023-04-11T19:57:55.527Z,10.00
2023-04-11T20:00:31.824Z,11.00
2023-04-11T20:03:05.950Z,11.10
2023-04-11T20:05:38.249Z,11.20
2023-04-11T20:08:10.463Z,14.50
2023-04-11T20:10:42.815Z,9.60
2023-04-11T20:13:15.993Z,13.30
2023-04-11T20:15:48.031Z,12.80
2023-04-11T20:18:19.853Z,11.60
2023-04-11T20:20:52.314Z,12.40
2023-04-11T20:23:24.713Z,14.40
2023-04-11T20:25:56.830Z,11.70
2023-04-11T20:28:30.351Z,10.60
2023-04-11T20:31:04.465Z,20.70
2023-04-11T20:33:37.148Z,10.20
2023-04-11T20:36:11.145Z,12.70
2023-04-11T20:38:43.463Z,11.80
2023-04-11T20:41:18.909Z,10.60
2023-04-11T20:43:52.155Z,9.10
2023-04-11T20:46:24.634Z,13.90
2023-04-11T20:48:56.599Z,12.40
2023-04-11T20:51:28.606Z,11.60
2023-04-11T20:54:00.532Z,10.80
2023-04-11T20:56:35.187Z,13.00
2023-04-11T20:59:09.106Z,8.30
2023-04-11T21:01:41.581Z,13.50
2023-04-11T21:04:15.442Z,11.40
2023-04-11T21:06:47.410Z,10.90
2023-04-11T21:09:19.496Z,10.40
2023-04-11T21:11:51.266Z,9.50
2023-04-11T21:14:22.977Z,6.00
2023-04-11T21:16:54.807Z,10.30
2023-04-11T21:19:26.661Z,11.10
2023-04-11T21:21:58.572Z,9.00
2023-04-11T21:24:32.564Z,10.10
2023-04-11T21:27:04.606Z,11.70
2023-04-11T21:29:36.450Z,11.90
2023-04-11T21:32:08.469Z,11.20
2023-04-11T21:34:40.299Z,12.60
2023-04-11T21:37:12.200Z,13.40
2023-04-11T21:39:44.025Z,11.90
2023-04-11T21:42:15.914Z,13.00
2023-04-11T21:44:47.675Z,14.70
2023-04-11T21:47:19.552Z,13.10
2023-04-11T21:49:51.451Z,11.40
2023-04-11T21:52:23.216Z,17.40
2023-04-11T21:54:54.945Z,8.80
2023-04-11T21:57:27.228Z,13.60
2023-04-11T21:59:59.038Z,21.30
2023-04-11T22:02:31.240Z,15.10
2023-04-11T22:05:06.983Z,12.50
2023-04-11T22:07:47.413Z,11.20
2023-04-11T22:10:30.356Z,13.80
2023-04-11T22:13:06.884Z,11.20
2023-04-11T22:15:40.033Z,9.90
2023-04-11T22:18:13.254Z,10.10
2023-04-11T22:20:46.169Z,10.90
2023-04-11T22:23:18.798Z,10.50
2023-04-11T22:25:59.356Z,12.20
2023-04-11T22:28:31.236Z,11.40
2023-04-11T22:31:04.825Z,11.40
2023-04-11T22:33:36.922Z,11.60
2023-04-11T22:36:11.721Z,11.80
2023-04-11T22:38:44.732Z,12.50
2023-04-11T22:41:19.938Z,9.40
2023-04-11T22:43:51.831Z,12.90
2023-04-11T22:46:23.909Z,14.10
2023-04-11T22:48:57.886Z,13.80
2023-04-11T22:51:30.237Z,10.70
2023-04-11T22:54:02.313Z,11.00
2023-04-11T22:56:34.610Z,13.00
2023-04-11T22:59:06.783Z,13.20
2023-04-11T23:01:38.725Z,11.00
2023-04-11T23:04:10.608Z,12.00
2023-04-11T23:06:42.751Z,11.10
2023-04-11T23:09:15.040Z,9.70
2023-04-11T23:11:48.795Z,15.00
2023-04-11T23:14:21.339Z,10.30
2023-04-11T23:16:53.188Z,12.50
2023-04-11T23:19:25.381Z,9.00
2023-04-11T23:21:57.128Z,8.40
2023-04-11T23:24:28.930Z,17.20
2023-04-11T23:27:00.835Z,14.40
2023-04-11T23:29:33.188Z,11.40
2023-04-11T23:32:05.090Z,14.80
2023-04-11T23:34:36.899Z,11.40
2023-04-11T23:37:09.111Z,14.00
2023-04-11T23:39:40.988Z,10.00
2023-04-11T23:42:13.360Z,7.60
2023-04-11T23:44:45.085Z,11.60
2023-04-11T23:47:16.896Z,9.80
2023-04-11T23:49:50.160Z,10.60
2023-04-11T23:52:22.409Z,10.70
2023-04-11T23:54:54.619Z,13.20
2023-04-11T23:57:26.982Z,15.90
2023-04-11T23:59:58.702Z,10.30
